Time;durP1;ratioP1;P1;durP2;ratioP2;P2;SDS_P1;SDS_P2;PMS_P1;PMS_P2;Temp;Humidity;BMP_temperature;BMP_pressure;BME280_temperature;BME280_humidity;BME280_pressure;Samples;Min_cycle;Max_cycle;Signal;HPM_P1;HPM_P2
2022/08/07 00:00:52;;;;;;;9.07;5.78;;;10.10;99.90;;;;;;5056358;28;20057;-66
2022/08/07 00:03:18;;;;;;;9.38;6.40;;;10.00;99.90;;;;;;5055885;28;20029;-66
2022/08/07 00:05:43;;;;;;;9.55;5.15;;;10.00;99.90;;;;;;5055832;28;20017;-66
2022/08/07 00:08:09;;;;;;;9.55;5.47;;;9.90;99.90;;;;;;5055502;28;20021;-66
2022/08/07 00:10:35;;;;;;;9.95;5.63;;;9.90;99.90;;;;;;5055550;28;20079;-66
2022/08/07 00:13:03;;;;;;;6.80;5.45;;;9.80;99.90;;;;;;5054565;28;20047;-66
2022/08/07 00:15:30;;;;;;;8.73;5.38;;;9.80;99.90;;;;;;5055392;28;20033;-67
2022/08/07 00:17:56;;;;;;;10.88;6.43;;;9.80;99.90;;;;;;5055656;28;20032;-67
2022/08/07 00:20:22;;;;;;;11.43;5.78;;;9.80;99.90;;;;;;5055137;28;20033;-67
2022/08/07 00:22:47;;;;;;;10.25;6.00;;;9.70;99.90;;;;;;5054500;28;20024;-67
2022/08/07 00:25:13;;;;;;;10.85;5.35;;;9.70;99.90;;;;;;5055240;28;20152;-67
2022/08/07 00:27:39;;;;;;;11.40;6.72;;;9.70;99.90;;;;;;5054200;28;20029;-67
2022/08/07 00:30:05;;;;;;;9.57;5.70;;;9.70;99.90;;;;;;5055014;28;20025;-67
2022/08/07 00:32:30;;;;;;;11.55;5.97;;;9.70;99.90;;;;;;5055290;28;20025;-68
2022/08/07 00:34:56;;;;;;;9.70;5.95;;;9.60;99.90;;;;;;5055062;28;20389;-68
2022/08/07 00:37:21;;;;;;;8.70;5.57;;;9.50;99.90;;;;;;5055178;28;20034;-68
2022/08/07 00:39:47;;;;;;;7.40;5.18;;;9.40;99.90;;;;;;5054771;28;20031;-68
2022/08/07 00:42:12;;;;;;;9.93;6.18;;;9.40;99.90;;;;;;5053768;28;20481;-67
2022/08/07 00:44:38;;;;;;;9.75;6.38;;;9.40;99.90;;;;;;5054763;28;20377;-66
2022/08/07 00:47:05;;;;;;;10.20;7.57;;;9.40;99.90;;;;;;5054864;28;20519;-66
2022/08/07 00:49:31;;;;;;;11.73;6.03;;;9.40;99.90;;;;;;5054814;28;20056;-66
2022/08/07 00:51:57;;;;;;;12.13;6.53;;;9.40;99.90;;;;;;5054717;28;20453;-66
2022/08/07 00:54:23;;;;;;;10.48;6.68;;;9.30;99.90;;;;;;5054807;28;20037;-66
2022/08/07 00:56:49;;;;;;;22.63;8.52;;;9.30;99.90;;;;;;5053642;28;20031;-66
2022/08/07 00:59:16;;;;;;;17.08;7.70;;;9.50;99.90;;;;;;5054640;28;20455;-66
2022/08/07 01:01:42;;;;;;;13.35;7.50;;;9.50;99.90;;;;;;5054682;28;20079;-66
2022/08/07 01:04:07;;;;;;;14.55;7.60;;;9.60;99.90;;;;;;5054476;28;20358;-66
2022/08/07 01:06:33;;;;;;;15.32;7.68;;;9.50;99.90;;;;;;5054364;28;20048;-66
2022/08/07 01:09:00;;;;;;;15.52;9.32;;;9.50;99.90;;;;;;5054076;28;20025;-67
2022/08/07 01:11:27;;;;;;;14.15;9.02;;;9.50;99.90;;;;;;5054098;28;20060;-66
2022/08/07 01:13:52;;;;;;;13.82;7.80;;;9.60;99.90;;;;;;5054587;28;20063;-66
2022/08/07 01:16:18;;;;;;;16.40;8.57;;;9.50;99.90;;;;;;5054251;28;20416;-66
2022/08/07 01:18:44;;;;;;;17.85;8.63;;;9.40;99.90;;;;;;5054471;28;20056;-66
2022/08/07 01:21:16;;;;;;;20.00;8.60;;;9.40;99.90;;;;;;5053974;28;20032;-66
2022/08/07 01:23:44;;;;;;;21.92;10.68;;;9.30;99.90;;;;;;5053180;28;20033;-67
2022/08/07 01:26:12;;;;;;;16.58;10.07;;;9.40;99.90;;;;;;5054347;28;20025;-67
2022/08/07 01:28:40;;;;;;;18.00;10.20;;;9.60;99.90;;;;;;5090130;23;20017;-68
2022/08/07 01:31:06;;;;;;;19.42;10.30;;;9.70;99.90;;;;;;5033974;28;20040;-67
2022/08/07 01:33:32;;;;;;;16.48;10.00;;;9.70;99.90;;;;;;5034069;28;20105;-67
2022/08/07 01:36:01;;;;;;;13.18;9.02;;;9.60;99.90;;;;;;5034078;28;20025;-67
2022/08/07 01:38:27;;;;;;;24.23;9.88;;;9.60;99.90;;;;;;5032370;28;20032;-68
2022/08/07 01:40:59;;;;;;;16.27;9.15;;;9.70;99.90;;;;;;5033961;28;20038;-67
2022/08/07 01:43:26;;;;;;;21.08;9.32;;;9.60;99.90;;;;;;5034009;28;20465;-67
2022/08/07 01:45:53;;;;;;;18.83;10.85;;;9.50;99.90;;;;;;5033959;28;20109;-67
2022/08/07 01:48:19;;;;;;;21.05;8.88;;;9.50;99.90;;;;;;5032649;28;20028;-67
2022/08/07 01:50:49;;;;;;;13.63;8.88;;;9.50;99.90;;;;;;5034001;28;20034;-67
2022/08/07 01:53:17;;;;;;;16.40;9.60;;;9.40;99.90;;;;;;5033564;28;20030;-67
2022/08/07 01:55:46;;;;;;;24.85;10.70;;;9.40;99.90;;;;;;5033725;28;20033;-68
2022/08/07 01:58:14;;;;;;;14.73;10.25;;;9.40;99.90;;;;;;5034115;28;20037;-67
2022/08/07 02:00:41;;;;;;;17.00;10.20;;;9.40;99.90;;;;;;5032617;28;20600;-68
2022/08/07 02:03:12;;;;;;;15.70;9.05;;;9.40;99.90;;;;;;5033580;28;20068;-67
2022/08/07 02:05:45;;;;;;;22.23;9.32;;;9.40;99.90;;;;;;5033831;28;20064;-67
2022/08/07 02:08:15;;;;;;;17.33;10.38;;;9.40;99.90;;;;;;5033841;28;20033;-67
2022/08/07 02:10:42;;;;;;;19.63;11.13;;;9.60;99.90;;;;;;5033387;28;20036;-67
2022/08/07 02:13:09;;;;;;;23.13;10.65;;;9.60;99.90;;;;;;5033737;28;20116;-67
2022/08/07 02:15:37;;;;;;;21.83;10.05;;;9.70;99.90;;;;;;5032165;28;20489;-67
2022/08/07 02:18:04;;;;;;;18.17;9.15;;;9.70;99.90;;;;;;5033967;28;20029;-67
2022/08/07 02:20:31;;;;;;;19.40;9.23;;;9.60;99.90;;;;;;5034022;28;20497;-68
2022/08/07 02:23:01;;;;;;;21.27;10.90;;;9.50;99.90;;;;;;5033723;28;20072;-67
2022/08/07 02:25:29;;;;;;;32.50;10.75;;;9.40;99.90;;;;;;5033265;28;20100;-67
2022/08/07 02:27:57;;;;;;;17.13;8.93;;;9.40;99.90;;;;;;5033261;28;20036;-67
2022/08/07 02:30:24;;;;;;;19.08;10.38;;;9.40;99.90;;;;;;5032269;28;20120;-67
2022/08/07 02:32:52;;;;;;;16.50;8.95;;;9.50;99.90;;;;;;5033487;28;20026;-67
2022/08/07 02:35:19;;;;;;;17.27;10.38;;;9.40;99.90;;;;;;5033256;28;20037;-67
2022/08/07 02:37:46;;;;;;;16.65;9.88;;;9.50;99.90;;;;;;5033317;28;20118;-67
2022/08/07 02:40:12;;;;;;;13.23;8.65;;;9.50;99.90;;;;;;5035715;28;20547;-68
2022/08/07 02:42:39;;;;;;;17.33;8.98;;;9.50;99.90;;;;;;5036666;28;20080;-68
2022/08/07 02:45:09;;;;;;;17.13;8.68;;;9.50;99.90;;;;;;5036919;28;20511;-67
2022/08/07 02:47:35;;;;;;;12.27;7.65;;;9.40;99.90;;;;;;5037622;28;20124;-67
2022/08/07 02:50:01;;;;;;;13.63;9.27;;;9.40;99.90;;;;;;5036996;28;20053;-68
2022/08/07 02:52:33;;;;;;;11.00;7.32;;;9.40;99.90;;;;;;5037144;28;20052;-68
2022/08/07 02:55:05;;;;;;;16.85;9.25;;;9.50;99.90;;;;;;5037216;28;20021;-67
2022/08/07 02:57:35;;;;;;;19.75;8.95;;;9.60;99.90;;;;;;5035312;28;20584;-69
2022/08/07 03:00:04;;;;;;;18.52;8.85;;;9.70;99.90;;;;;;5037436;28;20033;-69
2022/08/07 03:02:30;;;;;;;17.42;10.18;;;9.80;99.90;;;;;;5037248;28;20021;-69
2022/08/07 03:04:57;;;;;;;18.02;10.68;;;10.00;99.90;;;;;;5036959;28;20497;-69
2022/08/07 03:07:23;;;;;;;17.55;11.85;;;10.20;99.90;;;;;;5036747;28;20505;-69
2022/08/07 03:09:49;;;;;;;14.55;9.82;;;10.40;99.90;;;;;;5037183;28;20049;-69
2022/08/07 03:12:15;;;;;;;16.08;10.20;;;10.40;99.90;;;;;;5036069;28;20504;-69
2022/08/07 03:14:42;;;;;;;24.73;10.55;;;10.50;99.90;;;;;;5037307;28;20076;-69
2022/08/07 03:17:08;;;;;;;16.88;8.80;;;10.60;99.90;;;;;;5036615;28;20075;-69
2022/08/07 03:19:35;;;;;;;16.63;9.07;;;10.70;99.90;;;;;;5036851;28;20096;-69
2022/08/07 03:22:02;;;;;;;19.27;10.45;;;10.80;99.90;;;;;;5036561;28;20025;-69
2022/08/07 03:24:28;;;;;;;19.42;11.68;;;10.90;99.90;;;;;;5036571;28;20101;-69
2022/08/07 03:26:59;;;;;;;21.83;12.13;;;10.90;99.90;;;;;;5035634;28;20464;-69
2022/08/07 03:29:31;;;;;;;20.48;10.45;;;11.00;99.90;;;;;;5036586;28;20056;-69
2022/08/07 03:31:57;;;;;;;16.70;10.45;;;11.20;99.90;;;;;;5036356;28;20151;-69
2022/08/07 03:34:26;;;;;;;15.10;9.93;;;11.30;99.90;;;;;;5036580;28;20021;-69
2022/08/07 03:36:53;;;;;;;18.73;10.00;;;11.40;99.90;;;;;;5036360;28;20025;-69
2022/08/07 03:39:21;;;;;;;14.55;8.85;;;11.40;99.90;;;;;;5036586;28;20385;-69
2022/08/07 03:41:46;;;;;;;11.13;8.25;;;11.50;99.90;;;;;;5035351;28;20049;-69
2022/08/07 03:44:12;;;;;;;13.02;8.02;;;11.60;99.90;;;;;;5036201;28;20029;-69
2022/08/07 03:46:40;;;;;;;15.95;8.32;;;11.60;99.90;;;;;;5036058;28;20026;-68
2022/08/07 03:49:08;;;;;;;11.30;8.48;;;11.70;99.90;;;;;;5033636;28;20025;-69
2022/08/07 03:51:34;;;;;;;11.73;7.55;;;11.70;99.90;;;;;;5016831;28;20076;-69
2022/08/07 03:54:00;;;;;;;14.60;8.55;;;11.80;99.90;;;;;;5019803;28;20025;-68
2022/08/07 03:56:29;;;;;;;15.05;8.52;;;11.90;99.90;;;;;;5033782;28;20561;-69
2022/08/07 03:58:55;;;;;;;13.85;8.38;;;11.90;99.90;;;;;;5036383;28;20477;-68
2022/08/07 04:01:22;;;;;;;14.05;8.68;;;12.00;99.90;;;;;;5027709;28;20153;-69
2022/08/07 04:03:49;;;;;;;11.48;8.20;;;12.00;99.90;;;;;;5029600;28;20378;-69
2022/08/07 04:06:15;;;;;;;11.68;8.15;;;12.00;99.90;;;;;;5035814;28;20025;-69
2022/08/07 04:08:41;;;;;;;16.73;8.60;;;12.10;99.90;;;;;;5033684;28;20496;-69
2022/08/07 04:11:09;;;;;;;11.02;8.30;;;12.10;99.90;;;;;;5035907;28;20063;-69
2022/08/07 04:13:35;;;;;;;15.40;8.95;;;12.10;99.90;;;;;;5035456;28;20079;-69
2022/08/07 04:16:01;;;;;;;12.45;9.50;;;12.10;99.90;;;;;;5017952;28;20499;-69
2022/08/07 04:18:27;;;;;;;12.88;8.82;;;12.20;99.90;;;;;;5035531;28;20025;-69
2022/08/07 04:20:52;;;;;;;12.05;8.48;;;12.20;99.90;;;;;;5035957;28;20060;-68
2022/08/07 04:23:19;;;;;;;11.77;8.35;;;12.20;99.90;;;;;;5034443;28;20116;-68
2022/08/07 04:25:45;;;;;;;14.02;8.98;;;12.30;99.90;;;;;;5035399;28;20021;-69
2022/08/07 04:28:14;;;;;;;12.05;8.13;;;12.30;99.90;;;;;;5035605;28;20018;-68
2022/08/07 04:30:40;;;;;;;14.45;9.07;;;12.30;99.90;;;;;;5035135;28;20049;-68
2022/08/07 04:33:07;;;;;;;13.10;8.88;;;12.30;99.90;;;;;;5035369;28;20079;-68
2022/08/07 04:35:35;;;;;;;13.48;9.00;;;12.40;99.90;;;;;;5035154;28;20022;-68
2022/08/07 04:38:06;;;;;;;21.30;10.70;;;12.40;99.90;;;;;;5034355;28;20363;-68
2022/08/07 04:40:32;;;;;;;21.73;11.35;;;12.30;99.90;;;;;;5035281;28;20035;-68
2022/08/07 04:42:58;;;;;;;19.02;10.32;;;12.30;99.90;;;;;;5035077;28;20060;-68
2022/08/07 04:45:31;;;;;;;20.83;11.93;;;12.30;99.90;;;;;;5032327;28;20034;-68
2022/08/07 04:48:26;;;;;;;17.67;12.00;;;12.30;99.90;;;;;;5035374;28;20014;-68
2022/08/07 04:51:04;;;;;;;17.65;10.38;;;12.30;99.90;;;;;;5033911;28;20063;-68
2022/08/07 04:53:57;;;;;;;22.10;12.43;;;12.30;99.90;;;;;;5034780;28;20500;-68
2022/08/07 04:56:35;;;;;;;17.38;11.68;;;12.30;99.90;;;;;;4984451;28;20075;-68
2022/08/07 04:59:33;;;;;;;19.60;11.25;;;12.30;99.90;;;;;;5033834;28;20029;-68
2022/08/07 05:02:11;;;;;;;16.33;10.52;;;12.40;99.90;;;;;;4999893;28;20049;-68
2022/08/07 05:04:41;;;;;;;18.48;11.38;;;12.40;99.90;;;;;;5014195;28;20022;-68
2022/08/07 05:07:24;;;;;;;23.98;11.65;;;12.40;99.90;;;;;;5027771;28;20433;-68
2022/08/07 05:10:03;;;;;;;17.35;10.82;;;12.50;99.90;;;;;;5034470;28;20030;-68
2022/08/07 05:12:38;;;;;;;21.83;10.68;;;12.50;99.90;;;;;;5034726;28;20036;-68
2022/08/07 05:15:17;;;;;;;17.17;10.85;;;12.50;99.90;;;;;;5032848;28;20029;-68
2022/08/07 05:17:47;;;;;;;19.08;11.20;;;12.60;99.90;;;;;;5035156;28;20021;-68
2022/08/07 05:20:17;;;;;;;18.25;10.05;;;12.70;99.90;;;;;;5034100;28;20036;-68
2022/08/07 05:22:46;;;;;;;17.95;9.60;;;12.70;99.90;;;;;;5034649;28;20097;-68
2022/08/07 05:25:15;;;;;;;15.85;9.43;;;12.80;99.90;;;;;;5034575;28;20045;-68
2022/08/07 05:27:42;;;;;;;20.38;10.95;;;12.80;99.90;;;;;;5033322;28;20013;-68
2022/08/07 05:30:09;;;;;;;13.85;8.85;;;12.80;99.90;;;;;;5033985;28;20029;-68
2022/08/07 05:32:37;;;;;;;18.17;10.40;;;12.90;99.90;;;;;;5034660;28;20029;-68
2022/08/07 05:35:03;;;;;;;15.50;9.65;;;12.90;99.90;;;;;;5033927;28;20485;-68
2022/08/07 05:37:29;;;;;;;20.50;10.07;;;13.00;99.90;;;;;;5033890;28;20036;-68
2022/08/07 05:39:56;;;;;;;19.50;10.80;;;13.00;99.90;;;;;;5033854;28;20033;-68
2022/08/07 05:42:22;;;;;;;16.63;9.40;;;13.10;99.90;;;;;;5033164;28;20031;-68
2022/08/07 05:44:49;;;;;;;18.00;8.68;;;13.10;99.90;;;;;;5033955;28;20428;-68
2022/08/07 05:47:18;;;;;;;20.33;11.13;;;13.10;99.90;;;;;;5033807;28;20394;-68
2022/08/07 05:49:48;;;;;;;14.10;9.88;;;13.10;99.90;;;;;;5033738;28;20025;-68
2022/08/07 05:52:14;;;;;;;11.65;8.45;;;13.20;99.90;;;;;;5033852;28;20017;-68
2022/08/07 05:54:39;;;;;;;19.00;10.32;;;13.30;99.90;;;;;;5034227;28;20101;-68
2022/08/07 05:57:05;;;;;;;18.20;9.88;;;13.20;99.90;;;;;;5031318;28;20030;-68
2022/08/07 05:59:32;;;;;;;13.77;9.93;;;13.20;99.90;;;;;;5033778;28;20503;-68
2022/08/07 06:01:58;;;;;;;16.48;8.98;;;13.30;99.90;;;;;;5015852;28;20076;-68
2022/08/07 06:04:26;;;;;;;18.13;10.10;;;13.30;99.90;;;;;;5033608;28;20053;-68
2022/08/07 06:06:52;;;;;;;12.82;8.77;;;13.30;99.90;;;;;;5033808;28;20022;-68
2022/08/07 06:09:18;;;;;;;18.30;9.57;;;13.30;99.90;;;;;;5033615;28;20155;-68
2022/08/07 06:11:44;;;;;;;11.30;8.68;;;13.30;99.90;;;;;;5031090;28;20025;-68
2022/08/07 06:14:10;;;;;;;16.70;10.07;;;13.40;99.90;;;;;;5032354;28;20033;-68
2022/08/07 06:16:38;;;;;;;13.63;9.40;;;13.50;99.90;;;;;;5031438;28;20069;-69
2022/08/07 06:19:04;;;;;;;24.65;10.63;;;13.40;99.90;;;;;;5034164;28;20418;-68
2022/08/07 06:21:30;;;;;;;14.43;10.02;;;13.30;99.90;;;;;;5033305;28;20432;-68
2022/08/07 06:23:57;;;;;;;18.35;10.68;;;13.30;99.90;;;;;;5032319;28;20033;-68
2022/08/07 06:26:22;;;;;;;12.95;8.85;;;13.30;99.90;;;;;;5033856;28;20021;-68
2022/08/07 06:28:52;;;;;;;13.30;9.13;;;13.30;99.90;;;;;;5032980;28;20117;-68
2022/08/07 06:31:19;;;;;;;20.48;11.05;;;13.30;99.90;;;;;;5034128;28;20104;-68
2022/08/07 06:33:45;;;;;;;32.40;13.63;;;13.60;99.90;;;;;;5033571;28;20486;-68
2022/08/07 06:36:11;;;;;;;27.38;12.98;;;13.80;99.90;;;;;;5033595;28;20025;-68
2022/08/07 06:38:37;;;;;;;22.40;12.48;;;14.00;99.90;;;;;;5030979;28;20025;-68
2022/08/07 06:41:08;;;;;;;18.35;12.23;;;14.10;99.90;;;;;;5033383;28;20081;-68
2022/08/07 06:43:36;;;;;;;19.25;11.40;;;14.40;99.90;;;;;;5033203;28;20013;-68
2022/08/07 06:46:02;;;;;;;22.42;11.27;;;14.60;99.90;;;;;;5033172;28;20474;-68
2022/08/07 06:48:28;;;;;;;16.38;10.75;;;14.80;99.90;;;;;;5033000;28;20026;-68
2022/08/07 06:50:57;;;;;;;16.48;11.88;;;15.10;99.90;;;;;;5031350;28;20493;-68
2022/08/07 06:53:25;;;;;;;15.95;11.02;;;15.10;99.90;;;;;;5032909;28;20025;-68
2022/08/07 06:55:52;;;;;;;16.25;9.63;;;15.10;99.90;;;;;;5033627;28;20036;-68
2022/08/07 06:58:19;;;;;;;14.00;8.75;;;15.40;99.90;;;;;;5028422;28;20025;-68
2022/08/07 07:00:45;;;;;;;14.43;9.88;;;15.70;99.90;;;;;;5026389;28;20068;-68
2022/08/07 07:03:11;;;;;;;13.38;9.10;;;16.10;99.90;;;;;;5031200;28;20474;-68
2022/08/07 07:05:38;;;;;;;10.40;8.10;;;16.00;99.90;;;;;;5026099;28;20034;-68
2022/08/07 07:08:07;;;;;;;21.95;8.93;;;16.30;99.90;;;;;;5033167;28;20022;-68
2022/08/07 07:10:34;;;;;;;16.30;8.32;;;16.40;99.90;;;;;;5031562;28;20029;-69
2022/08/07 07:13:13;;;;;;;10.82;7.55;;;16.60;99.90;;;;;;5031954;28;20393;-68
2022/08/07 07:15:44;;;;;;;13.18;7.70;;;17.10;99.90;;;;;;5022015;28;20030;-69
2022/08/07 07:18:19;;;;;;;14.60;8.40;;;17.50;99.90;;;;;;5033261;28;20033;-69
2022/08/07 07:21:01;;;;;;;18.35;8.10;;;17.80;99.90;;;;;;5032945;28;20025;-69
2022/08/07 07:23:29;;;;;;;12.90;7.55;;;18.00;99.90;;;;;;5032890;28;20056;-69
2022/08/07 07:25:59;;;;;;;12.98;7.13;;;18.10;99.90;;;;;;5032798;28;20017;-69
2022/08/07 07:28:30;;;;;;;9.40;5.63;;;18.00;99.90;;;;;;5036453;28;20485;-69
2022/08/07 07:31:02;;;;;;;12.52;5.75;;;18.00;99.90;;;;;;5036064;28;20504;-68
2022/08/07 07:33:31;;;;;;;10.38;6.97;;;17.90;99.90;;;;;;5036940;28;20461;-67
2022/08/07 07:35:58;;;;;;;13.75;5.85;;;18.10;99.90;;;;;;5036247;28;20030;-67
2022/08/07 07:38:24;;;;;;;12.98;5.35;;;18.30;99.90;;;;;;5036045;28;20523;-67
2022/08/07 07:40:53;;;;;;;12.27;5.63;;;18.70;99.90;;;;;;5036220;28;20112;-67
2022/08/07 07:43:21;;;;;;;10.20;5.20;;;19.00;99.90;;;;;;5035265;28;20025;-67
2022/08/07 07:45:49;;;;;;;7.22;5.40;;;19.40;99.90;;;;;;5036159;28;20025;-67
2022/08/07 07:48:18;;;;;;;16.20;6.90;;;19.20;99.90;;;;;;5034850;28;20060;-67
2022/08/07 07:50:47;;;;;;;11.45;5.28;;;19.00;99.90;;;;;;5035863;28;20033;-67
2022/08/07 07:53:16;;;;;;;10.15;5.22;;;18.70;99.90;;;;;;5035904;28;20029;-68
2022/08/07 07:55:42;;;;;;;6.97;4.90;;;18.70;99.90;;;;;;5035997;28;20113;-67
2022/08/07 07:58:08;;;;;;;14.27;5.20;;;18.60;99.90;;;;;;5036010;28;20065;-67
2022/08/07 08:00:34;;;;;;;8.25;4.75;;;18.50;99.90;;;;;;5035641;28;20021;-67
2022/08/07 08:03:10;;;;;;;12.57;4.63;;;18.70;99.90;;;;;;5034761;28;20017;-67
2022/08/07 08:05:37;;;;;;;14.98;5.97;;;18.70;99.90;;;;;;5018743;28;20366;-67
2022/08/07 08:08:03;;;;;;;9.38;4.72;;;18.60;99.90;;;;;;5035739;28;20026;-68
2022/08/07 08:10:30;;;;;;;11.35;4.88;;;18.40;99.90;;;;;;5034574;28;20517;-68
2022/08/07 08:12:58;;;;;;;13.02;5.20;;;18.10;99.90;;;;;;5033913;28;20034;-71
2022/08/07 08:15:24;;;;;;;12.80;5.03;;;18.00;99.90;;;;;;5035631;28;20047;-67
2022/08/07 08:17:50;;;;;;;9.25;4.55;;;18.00;99.90;;;;;;5017060;28;20440;-68
2022/08/07 08:20:17;;;;;;;9.27;5.63;;;18.00;99.90;;;;;;5020038;28;20060;-68
2022/08/07 08:28:28;;;;;;;11.30;4.57;;;18.60;99.90;;;;;;5022714;28;20033;-69
2022/08/07 08:30:59;;;;;;;11.13;4.38;;;18.80;99.90;;;;;;5023087;28;20079;-68
2022/08/07 08:33:29;;;;;;;9.23;3.78;;;19.00;99.90;;;;;;5029464;28;20486;-68
2022/08/07 08:35:56;;;;;;;16.27;4.70;;;19.00;99.90;;;;;;5034055;28;20033;-68
2022/08/07 08:38:26;;;;;;;7.28;3.72;;;19.20;99.90;;;;;;5035015;28;20036;-67
2022/08/07 08:41:17;;;;;;;7.15;3.03;;;19.30;99.90;;;;;;5034788;28;20371;-68
2022/08/07 08:44:00;;;;;;;7.43;3.55;;;19.60;99.90;;;;;;5035457;28;20419;-67
2022/08/07 08:47:05;;;;;;;7.40;3.58;;;19.60;99.90;;;;;;5033995;28;20048;-67
2022/08/07 08:49:55;;;;;;;7.78;3.17;;;19.30;99.90;;;;;;4950706;28;20046;-67
2022/08/07 08:52:31;;;;;;;4.47;2.67;;;19.10;99.90;;;;;;4955173;29;20070;-67
2022/08/07 08:54:57;;;;;;;7.07;3.17;;;19.00;99.90;;;;;;5011340;28;20041;-67
2022/08/07 08:57:34;;;;;;;8.50;3.10;;;18.90;99.90;;;;;;5035389;28;20021;-67
2022/08/07 09:00:10;;;;;;;5.88;3.28;;;18.80;99.90;;;;;;5034480;28;20036;-68
2022/08/07 09:02:58;;;;;;;7.50;3.75;;;18.90;99.90;;;;;;5032107;28;20108;-68
2022/08/07 09:05:38;;;;;;;9.38;4.05;;;18.80;99.90;;;;;;5015897;28;20030;-68
2022/08/07 09:08:23;;;;;;;9.40;3.95;;;19.00;99.90;;;;;;5035247;28;20040;-68
2022/08/07 09:11:04;;;;;;;11.38;4.20;;;19.20;99.90;;;;;;5033952;28;20057;-67
2022/08/07 09:14:09;;;;;;;10.00;4.53;;;19.30;99.90;;;;;;5033509;28;20061;-68
2022/08/07 09:17:10;;;;;;;6.18;4.40;;;19.00;99.90;;;;;;5027584;28;20045;-69
2022/08/07 09:20:18;;;;;;;8.05;4.60;;;19.00;99.90;;;;;;5029457;28;20041;-68
2022/08/07 09:22:59;;;;;;;9.13;5.03;;;19.00;99.90;;;;;;4996618;28;20044;-68
2022/08/07 09:25:29;;;;;;;7.85;4.57;;;19.00;99.90;;;;;;5034759;28;20018;-68
2022/08/07 09:28:09;;;;;;;15.82;4.65;;;19.10;99.90;;;;;;5031345;28;20132;-68
2022/08/07 09:31:05;;;;;;;11.93;5.20;;;19.40;99.90;;;;;;5033419;28;20037;-68
2022/08/07 09:33:51;;;;;;;6.85;4.05;;;19.50;99.90;;;;;;4996778;28;20034;-68
2022/08/07 09:36:38;;;;;;;11.52;4.72;;;19.40;99.90;;;;;;5034412;28;20029;-68
2022/08/07 09:39:23;;;;;;;7.70;4.63;;;19.20;99.90;;;;;;5019797;28;20033;-68
2022/08/07 09:42:10;;;;;;;8.05;4.03;;;19.20;99.90;;;;;;5033138;28;20036;-68
2022/08/07 09:45:11;;;;;;;8.82;4.18;;;19.30;99.90;;;;;;5034030;28;20543;-68
2022/08/07 09:47:51;;;;;;;13.75;3.97;;;19.30;99.90;;;;;;4962508;28;20062;-68
2022/08/07 09:50:33;;;;;;;8.35;3.90;;;19.40;99.90;;;;;;5033689;28;20573;-68
2022/08/07 09:53:01;;;;;;;10.40;3.92;;;19.30;99.90;;;;;;5033263;28;20026;-67
2022/08/07 09:56:24;;;;;;;5.97;3.10;;;19.30;99.90;;;;;;5033161;28;20064;-68
2022/08/07 09:59:07;;;;;;;8.88;4.95;;;19.30;99.90;;;;;;5033883;28;20478;-68
2022/08/07 10:02:14;;;;;;;10.15;4.88;;;19.40;99.90;;;;;;5032870;28;20091;-68
2022/08/07 10:04:45;;;;;;;9.88;4.10;;;19.40;99.90;;;;;;5026951;28;20021;-68
2022/08/07 10:07:35;;;;;;;13.65;4.45;;;19.80;99.90;;;;;;5032337;28;20021;-68
2022/08/07 10:10:29;;;;;;;8.45;4.32;;;20.30;99.90;;;;;;5030656;28;20064;-69
2022/08/07 10:13:24;;;;;;;10.30;3.42;;;20.70;99.90;;;;;;5032415;28;20109;-68
2022/08/07 10:16:13;;;;;;;10.32;3.53;;;20.90;99.90;;;;;;5030823;28;20504;-68
2022/08/07 10:18:50;;;;;;;8.63;3.60;;;21.30;99.90;;;;;;5032721;28;20040;-68
2022/08/07 10:21:52;;;;;;;9.43;4.15;;;21.50;99.90;;;;;;5033434;28;20033;-69
2022/08/07 10:24:33;;;;;;;6.97;4.18;;;21.30;99.90;;;;;;5031063;28;20381;-68
2022/08/07 10:27:18;;;;;;;6.65;3.67;;;21.10;99.90;;;;;;5033556;28;20100;-68
2022/08/07 10:30:08;;;;;;;10.77;4.85;;;21.10;99.90;;;;;;5031444;28;20065;-68
2022/08/07 10:32:52;;;;;;;10.18;4.47;;;21.20;99.90;;;;;;5032337;28;20029;-68
2022/08/07 10:35:26;;;;;;;6.15;4.25;;;21.00;99.90;;;;;;5032580;28;20064;-68
2022/08/07 10:38:28;;;;;;;14.65;4.38;;;20.60;99.90;;;;;;5033071;28;20486;-68
2022/08/07 10:41:31;;;;;;;10.75;3.63;;;20.30;99.90;;;;;;5022047;28;20481;-68
2022/08/07 10:44:14;;;;;;;5.47;3.70;;;20.20;99.90;;;;;;5031641;28;20092;-68
2022/08/07 10:47:24;;;;;;;9.05;4.22;;;20.10;99.90;;;;;;5033491;28;20025;-68
2022/08/07 10:50:07;;;;;;;9.27;4.28;;;19.90;99.90;;;;;;5024319;28;20038;-68
2022/08/07 10:52:35;;;;;;;10.55;4.75;;;20.00;99.90;;;;;;5031153;28;20029;-69
2022/08/07 10:55:16;;;;;;;9.40;5.53;;;20.10;99.90;;;;;;5031185;28;20448;-68
2022/08/07 10:58:10;;;;;;;9.30;5.22;;;20.00;99.90;;;;;;5029135;28;20025;-68
2022/08/07 11:01:25;;;;;;;8.15;5.90;;;20.00;99.90;;;;;;5032885;28;20026;-67
2022/08/07 11:04:08;;;;;;;10.13;5.05;;;20.10;99.90;;;;;;4991845;28;20038;-67
2022/08/07 11:06:40;;;;;;;18.95;6.00;;;20.00;99.90;;;;;;5020913;28;20041;-68
2022/08/07 11:09:10;;;;;;;5.50;4.53;;;19.90;99.90;;;;;;5017659;28;20076;-68
2022/08/07 11:11:56;;;;;;;7.75;5.20;;;19.90;99.90;;;;;;5029485;28;20030;-67
2022/08/07 11:14:45;;;;;;;8.77;5.68;;;19.80;99.90;;;;;;5017029;28;20502;-67
2022/08/07 11:17:18;;;;;;;8.55;4.78;;;19.90;99.90;;;;;;5016914;28;20044;-67
2022/08/07 11:19:56;;;;;;;10.02;4.25;;;20.00;99.90;;;;;;5016872;28;20022;-68
2022/08/07 11:22:44;;;;;;;6.53;4.82;;;20.20;99.90;;;;;;5020357;28;20025;-68
2022/08/07 11:25:35;;;;;;;7.78;4.40;;;20.80;99.90;;;;;;5036388;28;20032;-68
2022/08/07 11:28:14;;;;;;;14.32;4.40;;;21.30;99.90;;;;;;5035683;28;20025;-67
2022/08/07 11:31:02;;;;;;;7.60;3.88;;;21.80;99.90;;;;;;5036336;28;20120;-67
2022/08/07 11:33:43;;;;;;;6.85;3.72;;;21.70;99.90;;;;;;5036646;28;20030;-67
2022/08/07 11:36:48;;;;;;;12.65;4.95;;;21.80;99.90;;;;;;5036659;28;20156;-67
2022/08/07 11:39:22;;;;;;;;;;;21.50;99.90;;;;;;5035676;28;20167;-67
2022/08/07 11:41:58;;;;;;;4.85;3.55;;;21.60;99.90;;;;;;5036487;28;19955;-67
2022/08/07 11:44:42;;;;;;;8.15;4.00;;;21.50;99.90;;;;;;5036568;28;20028;-67
2022/08/07 11:47:12;;;;;;;;;;;21.50;99.90;;;;;;5036847;28;20029;-67
2022/08/07 11:50:25;;;;;;;11.98;3.47;;;21.30;99.90;;;;;;5036101;28;19905;-67
2022/08/07 11:53:06;;;;;;;7.70;2.83;;;21.30;99.90;;;;;;5033953;28;20514;-67
2022/08/07 11:56:29;;;;;;;4.88;3.08;;;21.70;99.90;;;;;;5036606;28;20509;-68
2022/08/07 11:59:25;;;;;;;8.63;3.65;;;22.00;99.90;;;;;;4937027;29;20044;-67
2022/08/07 12:02:08;;;;;;;5.88;3.15;;;22.70;99.90;;;;;;4936819;29;20035;-67
2022/08/07 12:05:02;;;;;;;16.33;3.17;;;22.70;99.90;;;;;;5027761;28;20034;-67
2022/08/07 12:07:37;;;;;;;6.60;2.88;;;22.90;99.90;;;;;;5016015;28;20037;-67
2022/08/07 12:10:18;;;;;;;6.32;3.08;;;23.20;99.90;;;;;;5016215;28;20441;-67
2022/08/07 12:12:52;;;;;;;4.32;2.50;;;23.30;99.90;;;;;;5015755;28;20076;-67
2022/08/07 12:15:25;;;;;;;4.85;2.47;;;23.30;99.90;;;;;;5016844;28;20490;-68
2022/08/07 12:18:14;;;;;;;10.98;2.60;;;23.20;99.90;;;;;;5035598;28;20032;-67
2022/08/07 12:21:04;;;;;;;3.80;1.98;;;23.00;99.90;;;;;;5035469;28;20041;-67
2022/08/07 12:23:49;;;;;;;3.63;2.22;;;22.90;99.90;;;;;;5035748;28;20021;-67
2022/08/07 12:26:32;;;;;;;5.95;2.33;;;22.80;99.90;;;;;;5035887;28;20385;-67
2022/08/07 12:29:24;;;;;;;6.72;2.70;;;22.80;99.90;;;;;;5033086;28;20466;-67
2022/08/07 12:32:19;;;;;;;4.00;2.78;;;22.40;99.90;;;;;;5014997;28;20032;-67
2022/08/07 12:34:48;;;;;;;6.45;2.00;;;22.40;99.90;;;;;;5033330;28;20026;-67
2022/08/07 12:37:16;;;;;;;7.70;2.80;;;21.90;99.90;;;;;;5035591;28;20385;-67
2022/08/07 12:39:45;;;;;;;7.55;2.88;;;21.40;99.90;;;;;;5032110;28;20462;-67
2022/08/07 12:42:13;;;;;;;5.55;3.53;;;20.90;99.90;;;;;;5032915;28;20029;-68
2022/08/07 12:44:42;;;;;;;6.40;2.85;;;21.00;99.90;;;;;;5033013;28;20053;-67
2022/08/07 12:47:22;;;;;;;7.93;2.55;;;21.70;99.90;;;;;;5035049;28;20014;-67
2022/08/07 12:50:23;;;;;;;4.20;2.28;;;22.30;99.90;;;;;;5035090;28;20096;-67
2022/08/07 12:53:10;;;;;;;8.77;2.47;;;22.00;99.90;;;;;;5035477;28;20026;-67
2022/08/07 12:55:42;;;;;;;5.80;2.45;;;21.70;99.90;;;;;;5035013;28;20033;-67
2022/08/07 12:58:13;;;;;;;4.85;2.35;;;22.20;99.90;;;;;;5033216;28;20036;-67
2022/08/07 13:01:18;;;;;;;5.47;2.53;;;22.20;99.90;;;;;;5034864;28;20460;-67
2022/08/07 13:04:09;;;;;;;5.35;2.28;;;21.80;99.90;;;;;;5034949;28;20049;-67
2022/08/07 13:06:51;;;;;;;7.35;2.13;;;21.70;99.90;;;;;;5034633;28;20067;-68
2022/08/07 13:09:25;;;;;;;4.43;1.70;;;22.50;99.90;;;;;;5034872;28;20033;-68
2022/08/07 13:12:12;;;;;;;6.55;2.45;;;23.10;99.90;;;;;;5034068;28;20036;-68
2022/08/07 13:15:06;;;;;;;7.25;2.50;;;23.70;99.90;;;;;;5035015;28;20040;-68
2022/08/07 13:17:45;;;;;;;4.38;1.80;;;24.70;99.90;;;;;;5034856;28;20385;-68
2022/08/07 13:20:34;;;;;;;5.03;1.70;;;24.80;99.90;;;;;;5034908;28;20466;-68